Time;durP1;ratioP1;P1;durP2;ratioP2;P2;SDS_P1;SDS_P2;PMS_P1;PMS_P2;Temp;Humidity;BMP_temperature;BMP_pressure;BME280_temperature;BME280_humidity;BME280_pressure;Samples;Min_cycle;Max_cycle;Signal;HPM_P1;HPM_P2
2022/02/25 00:00:39;;;;;;;109.03;58.85;;;;;;;0.57;70.07;101486.94;1822642;78;20919;-72
2022/02/25 00:03:06;;;;;;;118.42;63.23;;;;;;;0.57;70.21;101488.66;1822800;78;20986;-71
2022/02/25 00:05:33;;;;;;;118.35;61.13;;;;;;;0.58;70.21;101479.64;1822880;78;20919;-72
2022/02/25 00:08:01;;;;;;;116.70;64.65;;;;;;;0.60;70.15;101470.57;1822731;78;22024;-69
2022/02/25 00:10:29;;;;;;;121.70;68.07;;;;;;;0.63;69.96;101461.98;1822791;78;21350;-71
2022/02/25 00:12:58;;;;;;;127.67;68.95;;;;;;;0.65;69.81;101455.09;1822754;78;20923;-72
2022/02/25 00:15:26;;;;;;;126.85;73.62;;;;;;;0.69;69.64;101451.60;1822735;78;20975;-70
2022/02/25 00:17:55;;;;;;;126.80;71.33;;;;;;;0.71;69.52;101443.41;1822807;78;20864;-71
2022/02/25 00:20:23;;;;;;;129.85;69.35;;;;;;;0.74;69.34;101448.14;1822748;78;20932;-71
2022/02/25 00:22:52;;;;;;;125.65;70.32;;;;;;;0.72;69.24;101443.41;1822639;78;20962;-71
2022/02/25 00:25:21;;;;;;;114.62;66.67;;;;;;;0.70;69.13;101445.15;1822832;78;21318;-72
2022/02/25 00:27:49;;;;;;;112.08;59.60;;;;;;;0.68;69.18;101440.87;1822758;78;20840;-72
2022/02/25 00:30:18;;;;;;;81.90;44.88;;;;;;;0.67;69.33;101433.97;1822839;78;20994;-71
2022/02/25 00:32:46;;;;;;;85.30;48.02;;;;;;;0.67;69.60;101430.10;1822850;78;20911;-71
2022/02/25 00:35:15;;;;;;;121.47;64.07;;;;;;;0.68;69.80;101430.10;1822507;78;20888;-72
2022/02/25 00:37:44;;;;;;;122.58;67.80;;;;;;;0.67;69.88;101424.53;1822868;78;21338;-71
2022/02/25 00:40:12;;;;;;;107.50;61.60;;;;;;;0.71;69.72;101421.06;1822731;78;20975;-71
2022/02/25 00:42:41;;;;;;;118.37;61.60;;;;;;;0.70;69.59;101419.77;1822760;78;20939;-71
2022/02/25 00:45:09;;;;;;;120.45;66.12;;;;;;;0.68;69.51;101424.94;1822812;78;21382;-72
2022/02/25 00:47:38;;;;;;;108.87;59.95;;;;;;;0.63;69.38;101416.37;1822686;78;20856;-74
2022/02/25 00:50:08;;;;;;;97.10;53.45;;;;;;;0.59;69.50;101409.07;1822763;78;21006;-72
2022/02/25 00:52:38;;;;;;;86.28;46.75;;;;;;;0.58;69.60;101403.94;1822681;78;21483;-72
2022/02/25 00:55:08;;;;;;;73.37;38.90;;;;;;;0.58;69.77;101403.94;1822763;78;20951;-72
2022/02/25 00:57:36;;;;;;;76.72;43.48;;;;;;;0.60;70.00;101395.73;1823059;78;21779;-73
2022/02/25 01:00:04;;;;;;;75.32;42.60;;;;;;;0.62;70.11;101386.25;1790870;78;20919;-72
2022/02/25 01:02:31;;;;;;;86.17;48.15;;;;;;;0.65;70.21;101379.80;1822921;78;20967;-72
2022/02/25 01:05:00;;;;;;;91.90;50.60;;;;;;;0.68;70.14;101377.19;1822658;78;20860;-72
2022/02/25 01:07:28;;;;;;;91.30;47.88;;;;;;;0.71;70.06;101374.60;1822847;78;20883;-71
2022/02/25 01:09:55;;;;;;;90.80;46.30;;;;;;;0.73;69.91;101372.84;1822667;78;21131;-71
2022/02/25 01:12:22;;;;;;;84.92;46.83;;;;;;;0.73;69.76;101370.26;1823030;78;20935;-71
2022/02/25 01:14:49;;;;;;;87.67;46.18;;;;;;;0.72;69.72;101367.27;1822643;78;21396;-71
2022/02/25 01:17:16;;;;;;;89.30;48.52;;;;;;;0.72;69.69;101370.29;1822626;78;20982;-72
2022/02/25 01:19:43;;;;;;;82.88;46.02;;;;;;;0.73;69.69;101359.08;1822825;78;20978;-71
2022/02/25 01:22:10;;;;;;;90.17;48.13;;;;;;;0.73;69.67;101356.06;1823273;78;21109;-72
2022/02/25 01:24:37;;;;;;;89.37;49.53;;;;;;;0.74;69.65;101353.92;1822884;78;21369;-70
2022/02/25 01:27:06;;;;;;;77.72;44.13;;;;;;;0.76;69.57;101349.60;1822799;78;21420;-71
2022/02/25 01:29:33;;;;;;;81.32;44.42;;;;;;;0.77;69.53;101343.55;1822657;78;20974;-73
2022/02/25 01:32:00;;;;;;;75.55;42.62;;;;;;;0.77;69.56;101344.84;1823210;78;21293;-72
2022/02/25 01:34:27;;;;;;;74.53;44.15;;;;;;;0.78;69.59;101347.87;1821166;78;21103;-73
2022/02/25 01:36:53;;;;;;;71.82;42.80;;;;;;;0.78;69.68;101341.86;1812484;78;20920;-71
2022/02/25 01:39:20;;;;;;;80.50;48.87;;;;;;;0.78;69.70;101341.41;1812872;79;21377;-71
2022/02/25 01:41:47;;;;;;;83.65;46.18;;;;;;;0.76;69.62;101341.01;1812628;79;20896;-72
2022/02/25 01:44:18;;;;;;;71.92;41.53;;;;;;;0.75;69.57;101348.31;1812914;79;20971;-72
2022/02/25 01:46:48;;;;;;;77.45;44.20;;;;;;;0.70;69.66;101340.61;1812383;79;21560;-71
2022/02/25 01:49:15;;;;;;;72.58;40.80;;;;;;;0.66;69.75;101347.95;1811759;79;20979;-71
2022/02/25 01:51:42;;;;;;;67.58;39.88;;;;;;;0.63;69.87;101341.97;1812568;79;20995;-71
2022/02/25 01:54:09;;;;;;;77.12;43.87;;;;;;;0.63;69.97;101345.84;1812853;79;20892;-71
2022/02/25 01:56:38;;;;;;;73.60;41.80;;;;;;;0.59;70.08;101343.27;1812654;79;20919;-71
2022/02/25 01:59:05;;;;;;;72.03;40.48;;;;;;;0.57;70.05;101342.41;1812937;79;21104;-72
2022/02/25 02:01:32;;;;;;;77.22;41.73;;;;;;;0.55;70.13;101341.56;1812666;79;20947;-71
2022/02/25 02:04:00;;;;;;;72.58;41.30;;;;;;;0.58;70.22;101345.87;1812976;78;20861;-72
2022/02/25 02:06:28;;;;;;;61.48;35.98;;;;;;;0.59;70.24;101347.58;1812669;79;20881;-71
2022/02/25 02:08:55;;;;;;;63.83;35.23;;;;;;;0.61;70.30;101347.13;1812829;79;20912;-72
2022/02/25 02:11:36;;;;;;;63.95;36.90;;;;;;;0.64;70.39;101342.37;1812571;79;21907;-71
2022/02/25 02:14:05;;;;;;;62.25;34.83;;;;;;;0.71;70.47;101341.45;1812521;79;20931;-71
2022/02/25 02:16:32;;;;;;;58.33;33.75;;;;;;;0.78;70.37;101323.34;1812697;79;20984;-71
2022/02/25 02:18:59;;;;;;;55.55;33.38;;;;;;;0.85;70.33;101320.72;1812699;79;20927;-71
2022/02/25 02:21:29;;;;;;;57.80;35.33;;;;;;;0.89;70.50;101324.55;1812880;79;20928;-71
2022/02/25 02:23:58;;;;;;;65.17;35.70;;;;;;;0.95;70.68;101324.91;1812858;79;21804;-71
2022/02/25 02:26:26;;;;;;;37.08;23.52;;;;;;;1.03;70.73;101321.83;1812554;79;20923;-71
2022/02/25 02:28:53;;;;;;;64.72;37.60;;;;;;;1.12;70.91;101319.61;1812708;79;20891;-70
2022/02/25 02:31:20;;;;;;;65.35;39.85;;;;;;;1.19;70.92;101320.80;1812696;79;21034;-71
2022/02/25 02:33:47;;;;;;;65.95;38.20;;;;;;;1.25;70.82;101312.15;1813073;79;20983;-71
2022/02/25 02:36:14;;;;;;;43.30;27.52;;;;;;;1.29;70.48;101315.54;1812623;78;21079;-71
2022/02/25 02:38:40;;;;;;;53.98;32.40;;;;;;;1.28;70.49;101310.81;1812715;79;20959;-71
2022/02/25 02:41:07;;;;;;;57.78;35.58;;;;;;;1.29;70.64;101312.55;1812836;79;21466;-71
2022/02/25 02:43:35;;;;;;;75.08;40.40;;;;;;;1.38;70.97;101315.44;1812778;79;20995;-73
2022/02/25 02:46:04;;;;;;;32.63;22.10;;;;;;;1.45;70.86;101313.23;1812735;79;20903;-71
2022/02/25 02:48:30;;;;;;;21.97;14.05;;;;;;;1.54;70.73;101313.56;1812752;78;21545;-72
2022/02/25 02:50:58;;;;;;;18.85;12.33;;;;;;;1.61;71.00;101303.12;1812614;79;21374;-71
2022/02/25 02:53:25;;;;;;;19.35;11.83;;;;;;;1.69;71.19;101304.34;1812948;78;20952;-71
2022/02/25 02:55:52;;;;;;;17.32;10.85;;;;;;;1.78;71.25;101295.17;1812729;79;20975;-71
2022/02/25 02:58:19;;;;;;;14.93;9.78;;;;;;;1.83;71.24;101287.35;1812848;79;20864;-71
2022/02/25 03:00:47;;;;;;;12.70;9.28;;;;;;;1.89;71.27;101287.69;1793185;80;21174;-73
2022/02/25 03:03:15;;;;;;;14.07;9.23;;;;;;;1.93;71.10;101274.69;1781020;80;20896;-71
2022/02/25 03:05:43;;;;;;;14.23;10.05;;;;;;;1.92;71.10;101275.59;1780706;80;20936;-72
2022/02/25 03:08:12;;;;;;;12.80;8.00;;;;;;;1.95;71.07;101274.23;1793305;80;20971;-72
2022/02/25 03:10:39;;;;;;;10.35;7.85;;;;;;;1.99;71.00;101269.89;1793468;80;20919;-73
2022/02/25 03:13:06;;;;;;;13.22;8.18;;;;;;;1.96;71.02;101265.62;1781175;80;21578;-72
2022/02/25 03:15:35;;;;;;;14.45;9.48;;;;;;;1.96;71.05;101259.16;1780719;80;20978;-74
2022/02/25 03:18:02;;;;;;;13.03;8.55;;;;;;;1.97;71.20;101256.97;1780669;80;21002;-72
2022/02/25 03:20:30;;;;;;;11.60;7.37;;;;;;;2.06;71.17;101256.83;1780687;80;20947;-73
2022/02/25 03:22:57;;;;;;;13.35;8.03;;;;;;;2.12;70.88;101258.49;1781063;80;21377;-72
2022/02/25 03:25:24;;;;;;;10.98;7.72;;;;;;;2.11;70.67;101252.03;1780765;80;21124;-70
2022/02/25 03:27:50;;;;;;;10.55;7.67;;;;;;;2.06;70.72;101245.64;1780909;80;20935;-72
2022/02/25 03:30:17;;;;;;;10.85;8.43;;;;;;;2.01;70.80;101237.95;1780670;80;20955;-72
2022/02/25 03:32:45;;;;;;;11.18;7.72;;;;;;;1.96;70.90;101234.58;1780510;80;20947;-73
2022/02/25 03:35:12;;;;;;;11.50;7.90;;;;;;;1.95;71.11;101241.06;1778470;80;21520;-75
2022/02/25 03:37:40;;;;;;;12.73;8.25;;;;;;;1.94;71.14;101240.21;1818176;78;21050;-74
2022/02/25 03:40:11;;;;;;;9.43;7.78;;;;;;;1.94;71.29;101245.83;1787704;80;21006;-74
2022/02/25 03:42:38;;;;;;;12.13;7.17;;;;;;;1.95;71.36;101238.47;1791296;80;21404;-74
2022/02/25 03:45:06;;;;;;;11.45;7.85;;;;;;;1.96;71.34;101233.73;1789661;80;20947;-73
2022/02/25 03:47:33;;;;;;;12.68;7.83;;;;;;;1.97;71.56;101239.31;1791269;79;20990;-73
2022/02/25 03:50:00;;;;;;;11.53;8.15;;;;;;;2.07;71.70;101231.84;1789812;80;21545;-73
2022/02/25 03:52:27;;;;;;;13.32;8.48;;;;;;;2.14;71.51;101226.14;1791183;80;20871;-75
2022/02/25 03:54:54;;;;;;;11.40;7.85;;;;;;;2.18;71.43;101226.48;1789655;80;20900;-73
2022/02/25 03:57:20;;;;;;;11.25;8.05;;;;;;;2.24;71.34;101230.27;1791242;78;20926;-74
2022/02/25 03:59:47;;;;;;;10.88;7.28;;;;;;;2.27;71.20;101228.95;1789691;80;20848;-75
2022/02/25 04:02:14;;;;;;;11.10;7.45;;;;;;;2.25;71.09;101230.26;1791256;80;21093;-72
2022/02/25 04:04:41;;;;;;;12.55;7.35;;;;;;;2.22;71.11;101228.14;1789213;80;20979;-72
2022/02/25 04:07:08;;;;;;;11.20;7.62;;;;;;;2.18;71.20;101235.12;1815705;79;20876;-73
2022/02/25 04:09:37;;;;;;;13.30;8.95;;;;;;;2.13;71.30;101235.61;1801534;79;20840;-74
2022/02/25 04:12:05;;;;;;;10.28;7.40;;;;;;;2.12;71.56;101234.36;1801667;79;21376;-76
2022/02/25 04:14:32;;;;;;;9.68;7.05;;;;;;;2.14;71.75;101237.78;1791245;80;22167;-72
2022/02/25 04:16:58;;;;;;;13.10;7.78;;;;;;;2.15;71.74;101239.03;1789456;80;20880;-72
2022/02/25 04:19:25;;;;;;;9.85;7.30;;;;;;;2.16;71.87;101236.03;1791209;78;20958;-72
2022/02/25 04:21:52;;;;;;;10.98;8.15;;;;;;;2.15;71.98;101243.36;1789429;80;20995;-73
2022/02/25 04:24:20;;;;;;;9.40;7.87;;;;;;;2.13;72.12;101240.78;1791230;80;20878;-73
2022/02/25 04:26:47;;;;;;;11.75;7.65;;;;;;;2.16;72.28;101234.73;1789632;80;21214;-71
2022/02/25 04:29:13;;;;;;;11.10;8.55;;;;;;;2.18;72.18;101233.83;1791124;80;20876;-72
2022/02/25 04:31:40;;;;;;;12.10;8.00;;;;;;;2.14;72.24;101226.98;1789563;80;21349;-72
2022/02/25 04:34:07;;;;;;;11.63;7.30;;;;;;;2.18;72.26;101231.66;1791096;78;23296;-72
2022/02/25 04:36:38;;;;;;;11.15;8.33;;;;;;;2.15;72.47;101232.56;1790733;79;21022;-72
2022/02/25 04:39:06;;;;;;;13.80;8.90;;;;;;;2.19;72.53;101234.67;1790327;80;22209;-73
2022/02/25 04:41:33;;;;;;;11.73;8.50;;;;;;;2.20;72.63;101226.89;1821589;78;20963;-72
2022/02/25 04:44:00;;;;;;;12.60;8.70;;;;;;;2.24;72.67;101222.51;1820970;78;20926;-72
2022/02/25 04:46:27;;;;;;;10.95;7.75;;;;;;;2.28;72.81;101215.12;1822198;78;21398;-72
2022/02/25 04:48:54;;;;;;;12.10;8.83;;;;;;;2.33;72.74;101213.75;1822748;78;20880;-73
2022/02/25 04:51:21;;;;;;;15.50;8.25;;;;;;;2.31;72.69;101212.91;1822388;78;21088;-73
2022/02/25 04:53:48;;;;;;;15.15;8.83;;;;;;;2.30;72.78;101208.19;1822879;78;20911;-71
2022/02/25 04:56:15;;;;;;;12.60;8.40;;;;;;;2.28;72.84;101214.67;1822989;78;21455;-72
2022/02/25 04:58:43;;;;;;;10.20;7.40;;;;;;;2.31;72.77;101211.17;1822788;78;20892;-73
2022/02/25 05:01:09;;;;;;;10.95;7.65;;;;;;;2.32;72.91;101206.87;1823124;78;20848;-73
2022/02/25 05:03:37;;;;;;;12.15;7.97;;;;;;;2.34;72.99;101205.12;1822716;78;21480;-73
2022/02/25 05:06:04;;;;;;;14.05;8.68;;;;;;;2.36;72.83;101202.92;1823019;78;20955;-73
2022/02/25 05:08:31;;;;;;;11.12;8.50;;;;;;;2.32;72.90;101210.76;1822823;78;20908;-73
2022/02/25 05:10:57;;;;;;;11.40;8.23;;;;;;;2.34;72.95;101205.12;1801382;78;21362;-73
2022/02/25 05:13:25;;;;;;;12.55;8.43;;;;;;;2.34;73.00;101210.30;1789279;80;20974;-74
2022/02/25 05:21:24;;;;;;;13.98;8.00;;;;;;;2.41;72.87;101191.19;1789347;80;20948;-71
2022/02/25 05:23:52;;;;;;;9.08;7.80;;;;;;;2.39;72.97;101186.03;1789242;80;20952;-74
2022/02/25 05:26:18;;;;;;;11.00;7.90;;;;;;;2.43;72.91;101180.38;1789260;78;20904;-74
2022/02/25 05:28:45;;;;;;;11.33;7.75;;;;;;;2.41;72.89;101186.02;1789276;79;22171;-73
2022/02/25 05:31:12;;;;;;;11.25;7.78;;;;;;;2.39;73.02;101178.27;1789163;80;21003;-73
2022/02/25 05:33:38;;;;;;;11.75;8.30;;;;;;;2.40;73.19;101179.98;1789312;80;20857;-74
2022/02/25 05:36:07;;;;;;;12.98;8.75;;;;;;;2.45;73.19;101167.81;1789168;79;20972;-74
2022/02/25 05:38:34;;;;;;;11.57;8.00;;;;;;;2.47;72.93;101166.50;1795327;79;20936;-73
2022/02/25 05:41:00;;;;;;;11.28;8.38;;;;;;;2.49;72.86;101168.63;1795620;80;21126;-74
2022/02/25 05:43:27;;;;;;;13.75;8.63;;;;;;;2.46;72.78;101160.45;1795725;80;20872;-75
2022/02/25 05:45:54;;;;;;;11.80;8.03;;;;;;;2.42;72.80;101164.00;1795682;80;20943;-73
2022/02/25 05:48:21;;;;;;;13.65;9.33;;;;;;;2.42;72.93;101160.53;1795885;80;20841;-73
2022/02/25 05:50:48;;;;;;;10.23;7.53;;;;;;;2.41;72.95;101158.39;1795791;80;20915;-73
2022/02/25 05:53:14;;;;;;;10.05;7.65;;;;;;;2.43;72.93;101164.39;1796154;80;21012;-74
2022/02/25 05:55:41;;;;;;;13.28;7.80;;;;;;;2.45;73.00;101149.69;1795681;80;21536;-74
2022/02/25 05:58:08;;;;;;;13.20;8.23;;;;;;;2.45;72.91;101153.58;1795816;80;21417;-75
2022/02/25 06:00:35;;;;;;;14.38;8.35;;;;;;;2.45;72.97;101151.44;1795911;79;20963;-74
2022/02/25 06:03:02;;;;;;;10.60;7.10;;;;;;;2.48;72.91;101144.89;1795829;80;21014;-74
2022/02/25 06:05:29;;;;;;;11.33;7.53;;;;;;;2.49;72.79;101145.33;1795831;80;21139;-73
2022/02/25 06:07:59;;;;;;;13.93;8.43;;;;;;;2.49;72.68;101146.17;1796120;80;21522;-73
2022/02/25 06:10:24;;;;;;;13.22;7.90;;;;;;;2.47;72.74;101143.20;1795879;79;20880;-74
2022/02/25 06:12:51;;;;;;;11.88;8.63;;;;;;;2.48;72.76;101148.78;1796231;80;21343;-74
2022/02/25 06:15:18;;;;;;;11.33;7.92;;;;;;;2.48;72.73;101148.78;1795843;80;21330;-74
2022/02/25 06:17:49;;;;;;;12.55;8.90;;;;;;;2.47;72.85;101141.91;1796143;80;21496;-74
2022/02/25 06:20:20;;;;;;;10.93;8.45;;;;;;;2.47;72.87;101143.20;1795751;80;21466;-74
2022/02/25 06:22:47;;;;;;;14.47;8.23;;;;;;;2.47;72.80;101147.94;1796105;80;20920;-75
2022/02/25 06:25:14;;;;;;;8.25;7.05;;;;;;;2.48;72.88;101150.08;1795886;79;20927;-75
2022/02/25 06:27:41;;;;;;;10.13;7.37;;;;;;;2.51;72.90;101164.69;1796204;80;20912;-74
2022/02/25 06:30:11;;;;;;;11.40;8.25;;;;;;;2.54;72.83;101172.42;1795850;80;21960;-74
2022/02/25 06:32:38;;;;;;;12.13;7.67;;;;;;;2.54;72.75;101172.42;1796009;79;20845;-75
2022/02/25 06:35:06;;;;;;;12.50;8.53;;;;;;;2.54;72.69;101173.72;1795971;79;21437;-74
2022/02/25 06:37:33;;;;;;;12.35;9.10;;;;;;;2.54;72.73;101171.12;1793072;80;21041;-75
2022/02/25 06:40:00;;;;;;;9.95;8.43;;;;;;;2.57;72.65;101172.36;1789385;79;21318;-73
2022/02/25 06:42:27;;;;;;;10.88;7.92;;;;;;;2.57;72.54;101182.71;1789396;79;21137;-75
2022/02/25 06:44:54;;;;;;;10.88;7.62;;;;;;;2.55;72.66;101178.00;1789720;78;21478;-74
2022/02/25 06:47:21;;;;;;;10.95;7.33;;;;;;;2.58;72.75;101185.70;1789568;78;20919;-74
2022/02/25 06:49:48;;;;;;;12.73;8.38;;;;;;;2.62;72.70;101179.59;1789459;79;21354;-74
2022/02/25 06:52:15;;;;;;;13.88;8.70;;;;;;;2.63;72.70;101176.13;1789657;79;20932;-74
2022/02/25 06:54:43;;;;;;;11.45;8.75;;;;;;;2.65;72.77;101171.78;1788852;79;20908;-75
2022/02/25 06:57:10;;;;;;;12.40;8.83;;;;;;;2.70;72.82;101166.92;1789242;79;20833;-73
2022/02/25 06:59:37;;;;;;;21.17;14.80;;;;;;;2.72;72.55;101166.90;1789760;80;20956;-74
2022/02/25 07:02:04;;;;;;;12.53;9.30;;;;;;;2.72;72.79;101173.38;1789341;80;21520;-74
2022/02/25 07:04:31;;;;;;;12.43;8.95;;;;;;;2.77;72.65;101170.70;1789453;79;20904;-74
2022/02/25 07:06:57;;;;;;;11.78;8.88;;;;;;;2.77;72.51;101157.75;1789328;80;21537;-75
2022/02/25 07:09:24;;;;;;;11.05;8.00;;;;;;;2.74;72.54;101158.66;1789369;78;20877;-74
2022/02/25 07:11:51;;;;;;;9.95;7.20;;;;;;;2.70;72.55;101157.86;1789299;80;21350;-73
2022/02/25 07:14:18;;;;;;;9.75;7.12;;;;;;;2.66;72.56;101147.58;1789389;79;20948;-75
2022/02/25 07:16:45;;;;;;;11.05;6.72;;;;;;;2.59;72.75;101135.20;1789362;79;20925;-74
2022/02/25 07:19:12;;;;;;;8.45;7.10;;;;;;;2.54;72.97;101139.61;1789630;78;21504;-74
2022/02/25 07:21:39;;;;;;;10.53;6.83;;;;;;;2.52;73.18;101139.23;1789416;80;21395;-72
2022/02/25 07:24:06;;;;;;;11.50;7.25;;;;;;;2.49;73.48;101135.82;1789600;80;20975;-74
2022/02/25 07:26:33;;;;;;;10.85;8.00;;;;;;;2.49;73.38;101143.59;1789334;80;20964;-73
2022/02/25 07:29:02;;;;;;;11.95;7.47;;;;;;;2.49;73.54;101139.70;1789442;80;20900;-73
2022/02/25 07:31:29;;;;;;;10.53;7.85;;;;;;;2.51;73.68;101139.65;1789355;79;21165;-73
2022/02/25 07:33:56;;;;;;;7.90;7.00;;;;;;;2.56;73.78;101137.85;1789605;80;20920;-74
2022/02/25 07:36:23;;;;;;;10.20;7.55;;;;;;;2.55;73.83;101143.05;1789372;80;20932;-74
2022/02/25 07:38:50;;;;;;;9.15;7.75;;;;;;;2.48;73.93;101142.30;1789275;78;21422;-74
2022/02/25 07:41:19;;;;;;;9.90;7.95;;;;;;;2.50;74.19;101139.25;1789694;78;20936;-74
2022/02/25 07:43:46;;;;;;;10.95;7.55;;;;;;;2.54;74.27;101142.66;1789350;79;21146;-74
2022/02/25 07:46:13;;;;;;;8.28;6.62;;;;;;;2.55;74.45;101130.95;1789247;79;21517;-76
2022/02/25 07:48:44;;;;;;;10.20;7.67;;;;;;;2.58;74.47;101127.03;1789338;78;21018;-72
2022/02/25 07:51:11;;;;;;;10.18;7.17;;;;;;;2.56;74.60;101126.66;1789717;78;20932;-74
2022/02/25 07:53:38;;;;;;;11.15;8.30;;;;;;;2.55;74.82;101122.34;1789457;80;20885;-73
2022/02/25 07:56:07;;;;;;;11.08;7.45;;;;;;;2.53;74.96;101117.18;1789670;80;22128;-73
2022/02/25 07:58:36;;;;;;;9.75;7.03;;;;;;;2.53;75.05;101114.59;1789368;78;21478;-74
2022/02/25 08:01:03;;;;;;;9.05;7.00;;;;;;;2.53;75.01;101112.45;1789542;79;21425;-74
2022/02/25 08:03:32;;;;;;;11.30;7.30;;;;;;;2.47;75.06;101103.08;1769443;80;20923;-75
2022/02/25 08:06:00;;;;;;;12.25;7.80;;;;;;;2.49;75.05;101100.88;1789703;80;20920;-75
2022/02/25 08:08:28;;;;;;;11.30;8.48;;;;;;;2.49;75.30;101103.45;1789282;80;21173;-74
2022/02/25 08:11:00;;;;;;;14.78;9.38;;;;;;;2.54;75.65;101105.12;1770235;80;20976;-74
2022/02/25 08:13:29;;;;;;;12.82;9.53;;;;;;;2.62;75.72;101098.91;1789286;78;21334;-74
2022/02/25 08:15:59;;;;;;;11.30;8.28;;;;;;;2.72;75.73;101092.25;1789347;80;20920;-75
2022/02/25 08:18:26;;;;;;;12.40;8.98;;;;;;;2.78;75.72;101086.51;1744435;80;20920;-73
2022/02/25 08:20:53;;;;;;;11.53;8.30;;;;;;;2.86;75.71;101092.81;1789258;78;21014;-74
2022/02/25 08:23:20;;;;;;;14.10;9.60;;;;;;;2.90;75.62;101095.75;1769430;80;20904;-75
2022/02/25 08:25:51;;;;;;;13.03;9.80;;;;;;;2.93;75.30;101090.50;1789549;80;20920;-75
2022/02/25 08:28:20;;;;;;;12.60;9.23;;;;;;;2.94;75.29;101087.04;1789412;79;20952;-75
2022/02/25 08:30:49;;;;;;;14.05;10.08;;;;;;;2.94;75.35;101086.20;1789655;79;20896;-73
2022/02/25 08:33:19;;;;;;;12.47;9.78;;;;;;;2.97;75.38;101084.82;1770093;80;21981;-74
2022/02/25 08:35:48;;;;;;;12.98;9.98;;;;;;;3.00;75.24;101083.03;1769896;80;20935;-75
2022/02/25 08:38:17;;;;;;;10.23;8.33;;;;;;;3.03;75.08;101079.06;1789285;78;20967;-76
2022/02/25 08:40:46;;;;;;;10.40;8.40;;;;;;;3.05;74.94;101076.00;1789379;79;20889;-75
2022/02/25 08:43:16;;;;;;;11.48;8.10;;;;;;;3.01;74.88;101068.33;1769957;80;20908;-73
2022/02/25 08:45:47;;;;;;;11.90;8.10;;;;;;;2.98;75.00;101064.49;1744170;80;21751;-74
2022/02/25 08:48:15;;;;;;;13.40;8.83;;;;;;;3.00;75.10;101061.02;1789245;79;20904;-74
2022/02/25 08:50:43;;;;;;;11.38;8.30;;;;;;;3.01;75.03;101060.56;1744745;80;20928;-75
2022/02/25 08:53:11;;;;;;;10.45;7.35;;;;;;;2.98;75.07;101058.02;1769249;78;20897;-75
2022/02/25 08:55:40;;;;;;;9.33;7.03;;;;;;;2.98;75.31;101055.42;1789417;80;20845;-74
2022/02/25 08:58:11;;;;;;;10.90;7.45;;;;;;;2.97;75.20;101055.03;1769612;80;21978;-74
2022/02/25 09:00:39;;;;;;;9.68;7.37;;;;;;;2.96;75.28;101058.49;1769458;80;20885;-74
2022/02/25 09:03:11;;;;;;;8.95;7.58;;;;;;;2.98;75.53;101058.89;1789270;79;20969;-74
2022/02/25 09:05:43;;;;;;;9.65;7.87;;;;;;;3.03;75.56;101059.64;1789190;78;20924;-75
2022/02/25 09:08:12;;;;;;;10.80;7.90;;;;;;;3.03;75.46;101046.69;1789699;79;20865;-75
2022/02/25 09:10:44;;;;;;;8.73;7.67;;;;;;;3.02;75.50;101046.25;1789402;79;21405;-75
2022/02/25 09:13:10;;;;;;;12.20;8.20;;;;;;;3.03;75.59;101036.32;1789387;79;20881;-75
2022/02/25 09:15:41;;;;;;;10.05;7.60;;;;;;;3.05;75.56;101029.82;1789230;80;20873;-75
2022/02/25 09:18:10;;;;;;;11.45;7.85;;;;;;;3.07;75.60;101028.89;1789650;79;20885;-75
2022/02/25 09:20:40;;;;;;;7.92;6.62;;;;;;;3.08;75.37;101020.22;1789302;80;20886;-76
2022/02/25 09:23:08;;;;;;;9.13;6.95;;;;;;;3.08;75.12;101031.03;1769867;80;21156;-74
2022/02/25 09:25:37;;;;;;;9.28;6.70;;;;;;;3.05;75.15;101031.96;1789148;79;20924;-74
2022/02/25 09:28:05;;;;;;;10.05;7.12;;;;;;;3.04;75.40;101030.23;1789599;79;20896;-74
2022/02/25 09:30:36;;;;;;;10.03;7.15;;;;;;;3.07;75.67;101030.19;1769512;80;20971;-74
2022/02/25 09:33:05;;;;;;;8.03;6.00;;;;;;;3.10;75.71;101026.22;1789319;79;21425;-74
2022/02/25 09:35:36;;;;;;;9.68;6.85;;;;;;;3.15;75.57;101027.41;1789474;80;21762;-74
2022/02/25 09:38:07;;;;;;;6.95;6.15;;;;;;;3.14;75.49;101020.54;1789172;79;21362;-75
2022/02/25 09:40:41;;;;;;;10.05;7.12;;;;;;;3.13;75.55;101013.63;1789260;79;21436;-75
2022/02/25 09:43:13;;;;;;;10.63;7.33;;;;;;;3.09;75.60;101018.47;1786076;80;20869;-75
2022/02/25 09:45:45;;;;;;;9.13;6.25;;;;;;;3.07;75.56;101017.69;1789390;80;20919;-73
2022/02/25 09:48:12;;;;;;;9.93;6.90;;;;;;;3.05;75.65;101014.27;1769338;80;21393;-74
2022/02/25 09:51:48;;;;;;;7.92;6.97;;;;;;;3.08;75.74;101003.83;1798550;79;22628;-73
2022/02/25 09:54:17;;;;;;;9.80;7.47;;;;;;;3.02;75.65;100997.48;1758391;80;20896;-74
2022/02/25 09:56:46;;;;;;;7.08;6.05;;;;;;;3.05;75.84;100994.39;1758167;81;21126;-74
2022/02/25 09:59:19;;;;;;;9.53;7.00;;;;;;;3.08;75.96;100986.53;1743554;81;20924;-74
2022/02/25 10:01:49;;;;;;;8.48;6.47;;;;;;;3.11;75.91;100981.30;1725155;83;20912;-74
2022/02/25 10:04:20;;;;;;;8.20;5.83;;;;;;;3.15;75.80;100974.29;1708157;83;20947;-75
2022/02/25 10:06:47;;;;;;;10.13;6.25;;;;;;;3.17;75.93;100979.45;1708479;82;20927;-74
2022/02/25 10:09:33;;;;;;;7.37;5.80;;;;;;;3.17;75.62;100976.41;1724804;83;21119;-74
2022/02/25 10:12:07;;;;;;;6.12;5.42;;;;;;;3.16;75.86;100981.61;1725138;83;20916;-73
2022/02/25 10:14:43;;;;;;;8.45;6.10;;;;;;;3.18;76.04;100972.94;1724716;82;20892;-74
2022/02/25 10:17:19;;;;;;;7.92;6.75;;;;;;;3.20;75.88;100969.88;1724863;83;20947;-75
2022/02/25 10:19:54;;;;;;;8.28;6.17;;;;;;;3.18;75.73;100959.98;1724712;83;21038;-75
2022/02/25 10:22:32;;;;;;;7.83;6.62;;;;;;;3.17;75.79;100954.83;1724832;83;21155;-76
2022/02/25 10:25:05;;;;;;;7.75;6.75;;;;;;;3.16;75.71;100941.03;1724722;83;20903;-75
2022/02/25 10:27:38;;;;;;;9.05;6.72;;;;;;;3.14;75.77;100955.76;1725183;83;20931;-75
2022/02/25 10:30:11;;;;;;;8.13;6.40;;;;;;;3.10;75.78;100947.64;1720344;82;20919;-75
2022/02/25 10:32:47;;;;;;;7.80;6.05;;;;;;;3.11;75.96;100942.86;1724960;83;21569;-74
2022/02/25 10:35:36;;;;;;;6.75;5.85;;;;;;;3.11;76.03;100940.27;1724813;83;21509;-74
2022/02/25 10:38:18;;;;;;;6.72;5.20;;;;;;;3.11;76.18;100939.84;1724767;83;21373;-75
2022/02/25 10:40:50;;;;;;;5.65;4.97;;;;;;;3.13;76.26;100938.94;1724662;83;21041;-74
2022/02/25 10:43:25;;;;;;;7.78;5.58;;;;;;;3.13;76.20;100941.08;1724501;81;21357;-74
2022/02/25 10:45:56;;;;;;;6.90;5.05;;;;;;;3.14;76.17;100929.00;1724958;82;20951;-74
2022/02/25 10:48:31;;;;;;;6.40;5.12;;;;;;;3.13;76.05;100935.05;1724887;81;21149;-75
2022/02/25 10:51:01;;;;;;;7.00;5.70;;;;;;;3.12;76.04;100925.14;1720343;82;20983;-73
2022/02/25 10:53:34;;;;;;;5.12;4.62;;;;;;;3.13;76.13;100922.94;1716980;83;20979;-74
2022/02/25 10:56:14;;;;;;;10.20;7.05;;;;;;;3.11;76.13;100929.90;1717322;82;20903;-75
2022/02/25 10:58:45;;;;;;;6.20;5.60;;;;;;;3.14;76.17;100940.66;1717006;83;21452;-75
2022/02/25 11:01:15;;;;;;;5.67;5.08;;;;;;;3.18;75.99;100947.03;1717112;83;21468;-76
2022/02/25 11:03:43;;;;;;;6.03;4.55;;;;;;;3.18;75.86;100937.08;1716505;83;20972;-77
2022/02/25 11:06:13;;;;;;;5.53;4.95;;;;;;;3.13;75.91;100933.31;1716859;83;21445;-75
2022/02/25 11:08:44;;;;;;;5.50;5.00;;;;;;;3.09;76.06;100944.63;1716446;83;21014;-73
2022/02/25 11:11:16;;;;;;;6.00;5.05;;;;;;;3.01;76.19;100929.28;1752848;81;20916;-75
2022/02/25 11:13:45;;;;;;;5.20;4.17;;;;;;;2.97;76.44;100938.01;1711973;82;21833;-74
2022/02/25 11:16:16;;;;;;;5.70;4.15;;;;;;;2.94;76.56;100932.91;1698824;82;20883;-75
2022/02/25 11:18:47;;;;;;;5.60;4.45;;;;;;;2.97;76.71;100928.09;1716547;83;20884;-75
2022/02/25 11:21:17;;;;;;;5.37;4.35;;;;;;;2.98;76.74;100919.42;1688775;83;20860;-76
2022/02/25 11:23:46;;;;;;;5.37;4.30;;;;;;;2.99;76.82;100925.88;1711128;82;20967;-76
2022/02/25 11:26:16;;;;;;;4.58;4.03;;;;;;;2.99;76.85;100919.84;1752886;82;21177;-73
2022/02/25 11:28:45;;;;;;;5.90;4.12;;;;;;;2.99;76.89;100914.67;1752584;80;20908;-74
2022/02/25 11:31:28;;;;;;;4.72;4.10;;;;;;;2.95;76.74;100911.28;1712026;82;20947;-74
2022/02/25 11:33:57;;;;;;;;;;;;;;;2.92;76.87;100917.00;1692352;83;20962;-76
2022/02/25 11:36:48;;;;;;;5.15;3.85;;;;;;;2.92;76.98;100920.44;1701179;84;20118;-75